Terminal Aerodrome Forecast
Issued by NWS

Home | Current Version | Previous Version | Text Only | Print | Product List | Glossary On
Versions: 1 2 3 4 5 6 7 8 9 10 11 12 13 14 15 16 17 18 19 20
000
FTUS46 KEKA 301554 AAA
TAFCEC
TAF AMD
KCEC 301554Z 3016/3112 06004KT 6SM BR OVC004
     FM301800 01010KT P6SM FEW250
     FM302100 33012G20KT P6SM SKC
     FM310100 36008KT P6SM SKC
     FM310500 01004KT P6SM SKC=

USA.gov is the U.S. government's official web portal to all federal, state and local government web resources and services.